createdAt,value
2018-06-20T00:02:39.206Z,20.00
2018-06-20T00:07:42.470Z,20.00
2018-06-20T00:12:45.732Z,20.10
2018-06-20T00:17:48.992Z,20.00
2018-06-20T00:22:52.256Z,19.90
2018-06-20T00:27:55.536Z,19.80
2018-06-20T00:38:01.804Z,19.70
2018-06-20T00:43:05.241Z,19.80
2018-06-20T00:48:08.887Z,19.80
2018-06-20T00:58:15.200Z,19.80
2018-06-20T01:03:18.463Z,19.70
2018-06-20T01:08:21.764Z,19.70
2018-06-20T01:13:25.031Z,19.80
2018-06-20T01:23:31.319Z,19.60
2018-06-20T01:28:34.607Z,19.70
2018-06-20T01:33:37.947Z,19.70
2018-06-20T01:38:41.210Z,19.60
2018-06-20T01:43:44.524Z,19.50
2018-06-20T01:48:47.818Z,19.40
2018-06-20T01:53:51.083Z,19.50
2018-06-20T01:58:54.343Z,19.50
2018-06-20T02:03:57.595Z,19.50
2018-06-20T02:09:00.911Z,19.40
2018-06-20T02:14:04.201Z,19.50
2018-06-20T02:19:07.448Z,19.50
2018-06-20T02:24:10.709Z,19.50
2018-06-20T02:29:13.981Z,19.50
2018-06-20T02:34:17.292Z,19.40
2018-06-20T02:39:20.578Z,19.30
2018-06-20T02:44:23.863Z,19.30
2018-06-20T02:49:27.173Z,19.30
2018-06-20T02:54:30.663Z,19.10
2018-06-20T02:59:34.627Z,18.80
2018-06-20T03:04:37.900Z,18.70
2018-06-20T03:09:41.177Z,18.40
2018-06-20T03:14:44.464Z,18.30
2018-06-20T03:19:47.750Z,18.40
2018-06-20T03:24:51.031Z,18.30
2018-06-20T03:34:57.382Z,18.30
2018-06-20T03:40:00.657Z,18.20
2018-06-20T03:45:03.971Z,18.30
2018-06-20T03:50:07.255Z,18.20
2018-06-20T03:55:10.543Z,18.30
2018-06-20T04:00:13.831Z,18.40
2018-06-20T04:05:18.373Z,18.60
2018-06-20T04:10:23.475Z,18.80
2018-06-20T04:15:26.773Z,19.00
2018-06-20T04:20:30.146Z,18.90
2018-06-20T04:25:33.387Z,18.90
2018-06-20T04:30:37.150Z,18.90
2018-06-20T04:35:40.507Z,19.00
2018-06-20T04:40:43.825Z,19.10
2018-06-20T04:45:47.095Z,19.20
2018-06-20T04:50:50.372Z,19.40
2018-06-20T04:55:53.670Z,19.50
2018-06-20T05:00:56.932Z,19.50
2018-06-20T05:06:00.199Z,19.60
2018-06-20T05:11:03.476Z,19.60
2018-06-20T05:16:06.735Z,19.40
2018-06-20T05:21:09.995Z,19.70
2018-06-20T05:26:19.979Z,20.10
2018-06-20T05:31:23.238Z,20.30
2018-06-20T05:36:26.511Z,20.40
2018-06-20T05:41:29.796Z,20.50
2018-06-20T05:46:33.066Z,20.90
2018-06-20T05:51:36.349Z,21.40
2018-06-20T05:56:39.616Z,21.20
2018-06-20T06:01:42.883Z,21.10
2018-06-20T06:06:46.154Z,21.10
2018-06-20T06:11:49.435Z,21.30
2018-06-20T06:16:52.724Z,21.40
2018-06-20T06:21:55.985Z,21.90
2018-06-20T06:26:59.250Z,22.20
2018-06-20T06:32:02.506Z,22.80
2018-06-20T06:37:05.779Z,22.50
2018-06-20T06:42:09.054Z,23.30
2018-06-20T06:47:12.342Z,24.00
2018-06-20T06:52:15.625Z,24.50
2018-06-20T06:57:18.883Z,25.10
2018-06-20T07:02:22.171Z,25.60
2018-06-20T07:07:25.791Z,24.80
2018-06-20T07:12:29.079Z,24.90
2018-06-20T07:17:32.372Z,25.00
2018-06-20T07:22:35.802Z,25.30
2018-06-20T07:27:39.091Z,26.10
2018-06-20T07:32:42.370Z,25.20
2018-06-20T07:37:45.654Z,25.80
2018-06-20T07:42:48.930Z,26.70
2018-06-20T07:47:52.224Z,26.80
2018-06-20T07:52:55.494Z,26.70
2018-06-20T07:57:58.755Z,27.20
2018-06-20T08:08:25.656Z,27.00
2018-06-20T08:13:34.393Z,27.30
2018-06-20T08:18:43.192Z,27.20
2018-06-20T08:23:46.461Z,27.10
2018-06-20T08:28:49.731Z,27.70
2018-06-20T08:33:53.013Z,27.70
2018-06-20T08:38:56.279Z,26.70
2018-06-20T08:44:00.038Z,26.90
2018-06-20T08:49:03.323Z,27.70
2018-06-20T08:54:06.592Z,28.10
2018-06-20T08:59:09.865Z,28.20
2018-06-20T09:04:18.518Z,28.30
2018-06-20T09:09:27.141Z,29.10
2018-06-20T09:14:34.649Z,28.90
2018-06-20T09:19:43.423Z,28.50
2018-06-20T09:24:46.800Z,28.10
2018-06-20T09:29:50.065Z,29.00
2018-06-20T09:39:56.380Z,29.20
2018-06-20T09:44:59.651Z,28.80
2018-06-20T09:50:08.340Z,28.70
2018-06-20T09:55:11.631Z,28.90
2018-06-20T10:00:20.392Z,29.30
2018-06-20T10:05:29.084Z,29.30
2018-06-20T10:10:37.688Z,29.90
2018-06-20T10:15:40.943Z,28.50
2018-06-20T10:20:44.212Z,28.60
2018-06-20T10:25:47.467Z,29.90
2018-06-20T10:30:50.738Z,30.80
2018-06-20T10:35:54.027Z,30.80
2018-06-20T10:40:57.294Z,30.60
2018-06-20T10:46:06.087Z,31.20
2018-06-20T10:51:09.369Z,32.20
2018-06-20T10:56:15.351Z,32.30
2018-06-20T11:01:23.932Z,31.50
2018-06-20T11:06:32.624Z,32.00
2018-06-20T11:11:41.399Z,31.70
2018-06-20T11:16:44.667Z,32.20
2018-06-20T11:21:47.939Z,32.70
2018-06-20T11:26:51.212Z,33.00
2018-06-20T11:31:54.743Z,33.90
2018-06-20T11:36:57.994Z,31.40
2018-06-20T11:42:01.296Z,30.90
2018-06-20T11:47:10.151Z,32.70
2018-06-20T11:57:21.835Z,33.30
2018-06-20T12:02:30.417Z,32.60
2018-06-20T12:07:39.025Z,32.20
2018-06-20T12:12:47.668Z,32.20
2018-06-20T12:17:56.298Z,32.60
2018-06-20T12:23:04.814Z,32.90
2018-06-20T12:28:13.559Z,33.00
2018-06-20T12:33:22.306Z,33.80
2018-06-20T12:38:30.839Z,32.30
2018-06-20T12:43:39.547Z,33.70
2018-06-20T12:48:42.829Z,33.40
2018-06-20T12:53:46.105Z,34.90
2018-06-20T12:58:49.371Z,33.60
2018-06-20T13:03:52.649Z,33.80
2018-06-20T13:08:56.195Z,31.50
2018-06-20T13:13:59.472Z,29.80
2018-06-20T13:19:02.911Z,28.90
2018-06-20T13:34:18.099Z,32.30
2018-06-20T13:39:26.818Z,32.70
2018-06-20T13:44:30.272Z,31.10
2018-06-20T13:49:33.524Z,32.60
2018-06-20T13:59:39.820Z,34.60
2018-06-20T14:04:43.115Z,34.40
2018-06-20T14:09:46.383Z,34.80
2018-06-20T14:14:50.000Z,33.80
2018-06-20T14:19:58.639Z,34.90
2018-06-20T14:25:01.946Z,35.20
2018-06-20T14:30:05.284Z,34.60
2018-06-20T14:35:13.963Z,34.40
2018-06-20T14:40:22.651Z,35.30
2018-06-20T14:45:31.378Z,34.00
2018-06-20T14:50:34.636Z,33.90
2018-06-20T14:55:37.909Z,33.60
2018-06-20T15:00:41.167Z,32.60
2018-06-20T15:05:44.451Z,31.50
2018-06-20T15:10:47.766Z,32.40
2018-06-20T15:15:51.079Z,33.10
2018-06-20T15:20:54.350Z,32.00
2018-06-20T15:26:04.016Z,31.30
2018-06-20T15:31:12.679Z,30.50
2018-06-20T15:36:21.338Z,30.80
2018-06-20T15:41:25.079Z,30.30
2018-06-20T15:46:28.348Z,30.30
2018-06-20T15:51:31.771Z,30.10
2018-06-20T15:56:35.105Z,29.70
2018-06-20T16:01:38.412Z,29.40
2018-06-20T16:06:41.870Z,29.60
2018-06-20T16:11:45.364Z,29.10
2018-06-20T16:21:58.591Z,28.80
2018-06-20T16:32:13.421Z,29.00
2018-06-20T16:37:17.587Z,28.90
2018-06-20T16:42:23.260Z,28.70
2018-06-20T16:47:27.346Z,28.60
2018-06-20T16:52:30.838Z,28.50
2018-06-20T16:57:35.893Z,28.40
2018-06-20T17:02:40.659Z,28.30
2018-06-20T17:07:44.952Z,28.00
2018-06-20T17:12:54.868Z,27.90
2018-06-20T17:18:03.535Z,27.70
2018-06-20T17:23:12.325Z,27.40
2018-06-20T17:28:15.611Z,27.40
2018-06-20T17:33:19.031Z,27.50
2018-06-20T17:38:22.286Z,27.30
2018-06-20T17:43:26.250Z,27.20
2018-06-20T17:48:29.561Z,27.00
2018-06-20T17:53:33.905Z,26.90
2018-06-20T17:58:37.173Z,26.80
2018-06-20T18:03:41.894Z,26.70
2018-06-20T18:08:50.627Z,26.70
2018-06-20T18:19:02.322Z,26.50
2018-06-20T18:29:08.626Z,26.20
2018-06-20T18:34:11.894Z,26.10
2018-06-20T18:39:15.142Z,26.10
2018-06-20T18:44:18.447Z,25.90
2018-06-20T18:49:23.302Z,25.80
2018-06-20T18:54:26.792Z,25.70
2018-06-20T18:59:35.612Z,25.60
2018-06-20T19:04:45.601Z,25.50
2018-06-20T19:09:49.027Z,25.40
2018-06-20T19:14:52.490Z,25.10
2018-06-20T19:19:55.824Z,25.00
2018-06-20T19:24:59.019Z,24.90
2018-06-20T19:30:02.405Z,24.90
2018-06-20T19:35:05.694Z,24.70
2018-06-20T19:40:09.291Z,24.60
2018-06-20T19:45:12.682Z,24.50
2018-06-20T19:50:15.983Z,24.50
2018-06-20T19:55:19.262Z,24.40
2018-06-20T20:00:24.463Z,24.00
2018-06-20T20:05:29.817Z,24.00
2018-06-20T20:10:34.952Z,23.80
2018-06-20T20:15:40.610Z,23.50
2018-06-20T20:20:46.244Z,23.40
2018-06-20T20:25:51.195Z,23.30
2018-06-20T20:30:54.808Z,22.70
2018-06-20T20:35:58.325Z,22.50
2018-06-20T20:41:03.774Z,22.40
2018-06-20T20:46:08.249Z,22.40
2018-06-20T20:51:13.288Z,22.20
2018-06-20T20:56:19.109Z,22.10
2018-06-20T21:01:24.633Z,22.00
2018-06-20T21:06:28.096Z,22.00
2018-06-20T21:11:33.018Z,21.90
2018-06-20T21:21:39.339Z,22.00
2018-06-20T21:26:42.659Z,21.90
2018-06-20T21:31:45.976Z,21.90
2018-06-20T21:36:49.278Z,21.70
2018-06-20T21:41:52.611Z,21.70
2018-06-20T21:46:56.806Z,21.80
2018-06-20T21:52:00.089Z,21.60
2018-06-20T21:57:03.415Z,21.60
2018-06-20T22:02:06.951Z,21.60
2018-06-20T22:07:10.469Z,21.20
2018-06-20T22:12:13.740Z,21.00
2018-06-20T22:17:17.007Z,20.90
2018-06-20T22:22:20.330Z,20.50
2018-06-20T22:27:23.603Z,20.60
2018-06-20T22:37:30.711Z,20.40
2018-06-20T22:42:33.989Z,20.40
2018-06-20T22:47:37.464Z,20.30
2018-06-20T22:52:40.891Z,20.30
2018-06-20T22:57:44.866Z,20.10
2018-06-20T23:02:48.416Z,19.90
2018-06-20T23:07:51.699Z,19.70
2018-06-20T23:12:54.946Z,19.50
2018-06-20T23:17:58.211Z,19.50
2018-06-20T23:23:01.484Z,19.40
2018-06-20T23:28:04.870Z,19.40
2018-06-20T23:33:08.123Z,19.50
2018-06-20T23:38:11.400Z,19.60
2018-06-20T23:43:14.665Z,19.50
2018-06-20T23:48:17.952Z,19.60
2018-06-20T23:53:21.206Z,19.50
2018-06-20T23:58:24.478Z,19.30
